createdAt,value
2023-03-18T00:00:34.476Z,19.30
2023-03-18T00:03:18.570Z,17.60
2023-03-18T00:05:46.463Z,16.50
2023-03-18T00:08:14.274Z,19.60
2023-03-18T00:10:42.104Z,18.00
2023-03-18T00:13:10.630Z,17.50
2023-03-18T00:15:38.501Z,16.70
2023-03-18T00:18:06.676Z,17.20
2023-03-18T00:20:40.524Z,16.80
2023-03-18T00:23:08.878Z,16.40
2023-03-18T00:25:39.023Z,17.30
2023-03-18T00:28:07.658Z,17.20
2023-03-18T00:30:38.892Z,16.80
2023-03-18T00:33:07.435Z,17.80
2023-03-18T00:35:36.437Z,18.10
2023-03-18T00:38:07.747Z,17.90
2023-03-18T00:40:53.737Z,16.60
2023-03-18T00:43:23.581Z,17.10
2023-03-18T00:45:51.489Z,17.80
2023-03-18T00:48:19.334Z,17.50
2023-03-18T00:50:47.175Z,16.90
2023-03-18T00:53:16.595Z,16.70
2023-03-18T00:55:45.261Z,17.50
2023-03-18T00:58:13.506Z,16.50
2023-03-18T01:00:41.696Z,16.40
2023-03-18T01:03:09.595Z,16.70
2023-03-18T01:05:38.332Z,17.00
2023-03-18T01:08:06.345Z,17.00
2023-03-18T01:10:34.459Z,16.40
2023-03-18T01:13:02.676Z,15.70
2023-03-18T01:15:30.487Z,16.90
2023-03-18T01:17:58.491Z,15.50
2023-03-18T01:20:27.186Z,15.30
2023-03-18T01:22:57.120Z,14.50
2023-03-18T01:25:25.362Z,15.20
2023-03-18T01:27:54.462Z,14.60
2023-03-18T01:30:23.759Z,15.70
2023-03-18T01:32:52.409Z,15.10
2023-03-18T01:35:20.324Z,14.70
2023-03-18T01:37:49.286Z,14.10
2023-03-18T01:40:17.862Z,14.20
2023-03-18T01:42:59.343Z,14.50
2023-03-18T01:45:30.371Z,13.60
2023-03-18T01:48:00.323Z,13.40
2023-03-18T01:50:33.512Z,13.20
2023-03-18T01:53:09.347Z,13.10
2023-03-18T01:55:39.989Z,12.90
2023-03-18T01:58:17.294Z,13.40
2023-03-18T02:00:51.722Z,13.20
2023-03-18T02:03:21.416Z,13.40
2023-03-18T02:05:50.468Z,13.40
2023-03-18T02:08:18.580Z,13.60
2023-03-18T02:10:46.654Z,13.50
2023-03-18T02:13:16.337Z,12.50
2023-03-18T02:15:55.473Z,13.00
2023-03-18T02:18:35.517Z,12.00
2023-03-18T02:21:12.599Z,13.10
2023-03-18T02:23:59.735Z,12.80
2023-03-18T02:27:02.563Z,11.70
2023-03-18T02:29:40.369Z,11.30
2023-03-18T02:32:13.972Z,11.90
2023-03-18T02:34:44.316Z,13.00
2023-03-18T02:37:12.810Z,11.70
2023-03-18T02:39:41.672Z,11.60
2023-03-18T02:42:14.449Z,10.30
2023-03-18T02:44:47.949Z,11.80
2023-03-18T02:47:34.377Z,11.60
2023-03-18T02:50:03.835Z,11.80
2023-03-18T02:52:31.818Z,12.30
2023-03-18T02:55:01.793Z,11.00
2023-03-18T02:57:29.686Z,12.30
2023-03-18T02:59:57.605Z,12.30
2023-03-18T03:02:26.433Z,12.80
2023-03-18T03:04:54.421Z,12.10
2023-03-18T03:07:26.942Z,12.60
2023-03-18T03:09:55.275Z,12.20
2023-03-18T03:12:23.452Z,11.70
2023-03-18T03:14:54.344Z,12.40
2023-03-18T03:17:22.824Z,12.00
2023-03-18T03:19:52.235Z,11.80
2023-03-18T03:22:20.078Z,11.60
2023-03-18T03:24:49.404Z,10.50
2023-03-18T03:27:17.849Z,10.90
2023-03-18T03:29:45.840Z,10.80
2023-03-18T03:32:13.866Z,10.80
2023-03-18T03:34:43.482Z,11.60
2023-03-18T03:37:12.703Z,11.60
2023-03-18T03:39:40.947Z,10.70
2023-03-18T03:42:08.905Z,10.70
2023-03-18T03:44:36.692Z,9.90
2023-03-18T03:47:05.046Z,10.80
2023-03-18T03:49:33.394Z,10.00
2023-03-18T03:52:01.456Z,9.80
2023-03-18T03:54:29.832Z,10.50
2023-03-18T03:56:58.349Z,10.50
2023-03-18T03:59:26.401Z,9.80
2023-03-18T04:02:14.354Z,9.80
2023-03-18T04:04:43.555Z,10.30
2023-03-18T04:07:17.697Z,10.50
2023-03-18T04:09:46.741Z,9.80
2023-03-18T04:12:14.831Z,9.90
2023-03-18T04:14:43.361Z,9.80
2023-03-18T04:17:11.604Z,9.20
2023-03-18T04:19:40.155Z,8.70
2023-03-18T04:22:09.824Z,9.50
2023-03-18T04:24:38.792Z,9.50
2023-03-18T04:27:07.746Z,9.60
2023-03-18T04:29:35.541Z,9.30
2023-03-18T04:32:04.367Z,8.60
2023-03-18T04:34:32.798Z,9.20
2023-03-18T04:37:00.673Z,8.60
2023-03-18T04:39:29.057Z,8.80
2023-03-18T04:41:59.799Z,8.70
2023-03-18T04:44:29.193Z,9.10
2023-03-18T04:46:57.153Z,9.30
2023-03-18T04:49:25.710Z,8.60
2023-03-18T04:51:55.057Z,9.50
2023-03-18T04:54:28.457Z,9.30
2023-03-18T04:56:58.118Z,10.50
2023-03-18T04:59:27.593Z,9.50
2023-03-18T05:01:55.825Z,9.60
2023-03-18T05:04:24.258Z,9.60
2023-03-18T05:06:53.436Z,10.40
2023-03-18T05:09:26.254Z,9.60
2023-03-18T05:11:54.499Z,8.80
2023-03-18T05:14:27.437Z,8.70
2023-03-18T05:16:56.139Z,8.10
2023-03-18T05:19:25.377Z,8.80
2023-03-18T05:22:00.517Z,8.50
2023-03-18T05:24:28.676Z,9.10
2023-03-18T05:26:57.494Z,9.30
2023-03-18T05:29:29.876Z,8.60
2023-03-18T05:32:08.972Z,9.00
2023-03-18T05:34:39.193Z,9.20
2023-03-18T05:37:10.101Z,8.70
2023-03-18T05:39:40.221Z,8.80
2023-03-18T05:42:11.569Z,9.00
2023-03-18T05:44:40.510Z,8.60
2023-03-18T05:47:10.097Z,8.30
2023-03-18T05:49:57.826Z,8.20
2023-03-18T05:52:26.600Z,8.60
2023-03-18T05:54:57.001Z,8.60
2023-03-18T05:57:28.552Z,7.80
2023-03-18T06:00:02.464Z,8.30
2023-03-18T06:02:43.790Z,8.40
2023-03-18T06:05:13.755Z,8.10
2023-03-18T06:07:41.899Z,7.70
2023-03-18T06:10:10.617Z,7.60
2023-03-18T06:12:39.581Z,7.50
2023-03-18T06:15:09.162Z,7.80
2023-03-18T06:17:37.644Z,8.70
2023-03-18T06:20:08.886Z,11.30
2023-03-18T06:22:37.204Z,8.50
2023-03-18T06:25:08.267Z,8.60
2023-03-18T06:27:38.504Z,9.30
2023-03-18T06:30:06.844Z,7.40
2023-03-18T06:32:36.958Z,7.70
2023-03-18T06:35:05.334Z,7.50
2023-03-18T06:37:34.093Z,7.50
2023-03-18T06:40:02.250Z,7.30
2023-03-18T06:42:32.240Z,7.20
2023-03-18T06:45:13.798Z,6.60
2023-03-18T06:47:55.278Z,7.00
2023-03-18T06:50:24.468Z,7.00
2023-03-18T06:52:53.176Z,7.30
2023-03-18T06:55:26.803Z,6.90
2023-03-18T06:57:54.750Z,6.40
2023-03-18T07:00:26.896Z,6.30
2023-03-18T07:02:55.485Z,6.20
2023-03-18T07:05:26.630Z,6.60
2023-03-18T07:07:55.808Z,6.30
2023-03-18T07:10:29.671Z,6.50
2023-03-18T07:13:10.743Z,6.20
2023-03-18T07:15:40.296Z,5.50
2023-03-18T07:18:12.076Z,6.60
2023-03-18T07:20:40.368Z,5.80
2023-03-18T07:23:08.339Z,7.10
2023-03-18T07:25:36.723Z,6.00
2023-03-18T07:28:05.902Z,6.60
2023-03-18T07:30:34.250Z,5.80
2023-03-18T07:33:02.543Z,6.30
2023-03-18T07:35:31.171Z,6.50
2023-03-18T07:37:59.460Z,6.30
2023-03-18T07:40:27.444Z,6.60
2023-03-18T07:42:55.779Z,7.70
2023-03-18T07:45:24.002Z,6.20
2023-03-18T07:47:51.899Z,7.10
2023-03-18T07:50:19.903Z,6.30
2023-03-18T07:52:48.241Z,9.50
2023-03-18T07:55:16.465Z,8.00
2023-03-18T07:57:44.312Z,6.40
2023-03-18T08:00:12.702Z,5.50
2023-03-18T08:02:43.698Z,6.70
2023-03-18T08:05:13.796Z,7.00
2023-03-18T08:07:41.766Z,7.30
2023-03-18T08:10:10.178Z,7.00
2023-03-18T08:12:51.557Z,6.60
2023-03-18T08:15:22.441Z,7.00
2023-03-18T08:17:51.209Z,6.70
2023-03-18T08:20:19.357Z,8.50
2023-03-18T08:22:47.356Z,16.80
2023-03-18T08:25:15.916Z,33.00
2023-03-18T08:27:43.866Z,184.80
2023-03-18T08:30:13.767Z,73.50
2023-03-18T08:32:43.830Z,75.90
2023-03-18T08:35:12.971Z,33.00
2023-03-18T08:37:41.244Z,20.50
2023-03-18T08:40:10.059Z,18.00
2023-03-18T08:42:37.870Z,14.50
2023-03-18T08:45:06.529Z,11.70
2023-03-18T08:47:34.298Z,19.50
2023-03-18T08:50:02.087Z,8.90
2023-03-18T08:52:30.088Z,6.40
2023-03-18T08:54:58.603Z,7.00
2023-03-18T08:57:28.074Z,6.70
2023-03-18T08:59:55.956Z,21.60
2023-03-18T09:02:23.780Z,12.40
2023-03-18T09:04:55.148Z,17.90
2023-03-18T09:07:23.064Z,13.30
2023-03-18T09:09:54.093Z,11.90
2023-03-18T09:12:22.747Z,27.80
2023-03-18T09:14:50.656Z,88.10
2023-03-18T09:17:18.523Z,32.30
2023-03-18T09:19:46.385Z,23.30
2023-03-18T09:22:14.337Z,12.00
2023-03-18T09:24:42.363Z,48.80
2023-03-18T09:27:10.821Z,45.50
2023-03-18T09:29:38.701Z,15.00
2023-03-18T09:32:06.912Z,14.10
2023-03-18T09:34:34.723Z,15.30
2023-03-18T09:37:02.456Z,21.10
2023-03-18T09:39:30.262Z,8.30
2023-03-18T09:42:04.334Z,6.80
2023-03-18T09:44:34.848Z,6.50
2023-03-18T09:47:34.269Z,6.10
2023-03-18T09:50:42.136Z,6.00
2023-03-18T09:53:41.954Z,6.80
2023-03-18T09:56:18.035Z,6.10
2023-03-18T09:58:54.723Z,5.80
2023-03-18T10:01:26.456Z,19.10
2023-03-18T10:04:17.071Z,14.60
2023-03-18T10:06:47.264Z,8.20
2023-03-18T10:09:29.128Z,24.10
2023-03-18T10:12:10.340Z,16.40
2023-03-18T10:14:49.990Z,22.50
2023-03-18T10:17:42.637Z,10.00
2023-03-18T10:20:51.775Z,15.00
2023-03-18T10:23:27.439Z,6.90
2023-03-18T10:26:04.809Z,67.30
2023-03-18T10:28:49.304Z,11.80
2023-03-18T10:31:36.625Z,7.70
2023-03-18T10:34:11.938Z,12.20
2023-03-18T10:37:01.384Z,7.10
2023-03-18T10:39:29.701Z,5.70
2023-03-18T10:42:01.849Z,5.90
2023-03-18T10:44:34.292Z,5.60
2023-03-18T10:47:07.146Z,5.80
2023-03-18T10:49:39.251Z,5.70
2023-03-18T10:52:18.411Z,7.00
2023-03-18T10:54:53.024Z,7.00
2023-03-18T10:57:22.693Z,6.00
2023-03-18T10:59:52.318Z,6.50
2023-03-18T11:02:20.426Z,9.70
2023-03-18T11:04:55.381Z,25.90
2023-03-18T11:07:26.759Z,9.20
2023-03-18T11:09:55.103Z,5.90
2023-03-18T11:12:32.600Z,21.50
2023-03-18T11:15:00.774Z,12.20
2023-03-18T11:17:33.276Z,25.50
2023-03-18T11:20:10.968Z,10.10
2023-03-18T11:22:45.861Z,8.70
2023-03-18T11:25:24.200Z,8.80
2023-03-18T11:28:19.932Z,8.30
2023-03-18T11:30:55.346Z,15.40
2023-03-18T11:33:33.393Z,9.10
2023-03-18T11:36:07.095Z,7.20
2023-03-18T11:38:37.277Z,19.60
2023-03-18T11:41:13.353Z,9.60
2023-03-18T11:44:02.542Z,8.30
2023-03-18T11:46:38.812Z,6.80
2023-03-18T11:49:13.158Z,9.90
2023-03-18T11:51:50.000Z,9.00
2023-03-18T11:54:43.312Z,7.70
2023-03-18T11:57:43.499Z,14.20
2023-03-18T12:00:26.574Z,13.50
2023-03-18T12:03:06.083Z,36.20
2023-03-18T12:05:57.074Z,14.10
2023-03-18T12:08:38.549Z,9.10
2023-03-18T12:11:33.098Z,19.50
2023-03-18T12:14:28.513Z,11.00
2023-03-18T12:19:54.936Z,14.20
2023-03-18T12:22:22.648Z,6.90
2023-03-18T12:25:20.761Z,9.60
2023-03-18T12:28:04.283Z,6.50
2023-03-18T12:30:53.236Z,23.50
2023-03-18T12:33:40.344Z,13.30
2023-03-18T12:36:39.894Z,16.40
2023-03-18T12:39:19.983Z,21.80
2023-03-18T12:41:58.013Z,25.60
2023-03-18T12:45:00.977Z,13.50
2023-03-18T12:47:37.160Z,19.00
2023-03-18T12:50:15.416Z,13.60
2023-03-18T12:52:52.289Z,24.00
2023-03-18T12:55:29.430Z,10.60
2023-03-18T12:58:05.376Z,6.90
2023-03-18T13:03:24.815Z,12.60
2023-03-18T13:05:57.373Z,14.30
2023-03-18T13:09:02.182Z,15.60
2023-03-18T13:12:01.908Z,8.50
2023-03-18T13:14:48.636Z,8.20
2023-03-18T13:17:29.745Z,10.00
2023-03-18T13:20:03.892Z,12.80
2023-03-18T13:22:44.154Z,36.20
2023-03-18T13:25:30.525Z,23.00
2023-03-18T13:28:25.584Z,11.80
2023-03-18T13:30:56.183Z,21.40
2023-03-18T13:33:39.402Z,30.20
2023-03-18T13:36:42.469Z,21.80
2023-03-18T13:39:36.301Z,16.70
2023-03-18T13:42:04.120Z,23.80
2023-03-18T13:44:42.475Z,23.40
2023-03-18T13:47:18.096Z,41.70
2023-03-18T13:49:47.411Z,35.60
2023-03-18T13:52:26.835Z,13.80
2023-03-18T13:55:02.181Z,9.30
2023-03-18T13:57:33.433Z,7.60
2023-03-18T14:00:30.665Z,19.70
2023-03-18T14:03:18.088Z,19.30
2023-03-18T14:05:47.089Z,14.30
2023-03-18T14:08:37.291Z,10.00
2023-03-18T14:11:17.364Z,11.50
2023-03-18T14:14:01.868Z,25.00
2023-03-18T14:16:37.786Z,25.40
2023-03-18T14:19:17.798Z,24.70
2023-03-18T14:21:49.318Z,13.00
2023-03-18T14:24:23.212Z,15.40
2023-03-18T14:27:06.825Z,16.00
2023-03-18T14:29:37.490Z,22.60
2023-03-18T14:32:26.178Z,19.30
2023-03-18T14:34:57.539Z,15.80
2023-03-18T14:37:46.816Z,10.60
2023-03-18T14:40:17.834Z,14.50
2023-03-18T14:42:58.366Z,22.90
2023-03-18T14:45:33.689Z,13.50
2023-03-18T14:48:24.435Z,17.50
2023-03-18T14:50:56.090Z,28.00
2023-03-18T14:53:32.555Z,13.20
2023-03-18T14:56:02.910Z,10.30
2023-03-18T14:58:33.774Z,19.80
2023-03-18T15:01:09.789Z,35.10
2023-03-18T15:03:40.862Z,48.20
2023-03-18T15:06:17.816Z,38.10
2023-03-18T15:08:58.874Z,24.10
2023-03-18T15:11:27.078Z,24.10
2023-03-18T15:14:00.079Z,12.60
2023-03-18T15:16:33.091Z,8.70
2023-03-18T15:19:03.694Z,8.40
2023-03-18T15:21:37.651Z,9.80
2023-03-18T15:24:07.830Z,8.60
2023-03-18T15:26:40.901Z,9.50
2023-03-18T15:29:28.854Z,8.10
2023-03-18T15:32:16.482Z,7.30
2023-03-18T15:34:51.118Z,33.60
2023-03-18T15:37:42.658Z,15.70
2023-03-18T15:40:22.527Z,15.80
2023-03-18T15:42:50.849Z,20.80
2023-03-18T15:45:21.871Z,87.50
2023-03-18T15:47:49.770Z,47.10
2023-03-18T15:50:29.138Z,52.70
2023-03-18T15:53:17.931Z,72.90
2023-03-18T15:55:51.771Z,78.10
2023-03-18T15:58:23.456Z,33.10
2023-03-18T16:00:52.775Z,15.60
2023-03-18T16:03:24.647Z,11.90
2023-03-18T16:05:53.903Z,10.20
2023-03-18T16:08:22.870Z,10.80
2023-03-18T16:10:54.797Z,12.40
2023-03-18T16:13:26.679Z,14.40
2023-03-18T16:15:54.613Z,16.00
2023-03-18T16:18:22.903Z,19.40
2023-03-18T16:20:52.925Z,23.10
2023-03-18T16:23:21.257Z,22.10
2023-03-18T16:25:52.623Z,22.60
2023-03-18T16:28:25.898Z,20.30
2023-03-18T16:30:56.362Z,19.70
2023-03-18T16:33:24.998Z,19.10
2023-03-18T16:36:00.402Z,20.20
2023-03-18T16:38:31.255Z,29.30
2023-03-18T16:40:59.163Z,28.60
2023-03-18T16:43:30.397Z,26.00
2023-03-18T16:46:04.239Z,30.20
2023-03-18T16:48:32.641Z,36.20
2023-03-18T16:51:02.794Z,30.70
2023-03-18T16:53:31.700Z,37.50
2023-03-18T16:56:21.975Z,64.60
2023-03-18T16:58:51.407Z,78.50
2023-03-18T17:01:19.599Z,77.70
2023-03-18T17:03:48.136Z,88.10
2023-03-18T17:06:16.275Z,75.50
2023-03-18T17:08:44.120Z,64.40
2023-03-18T17:11:18.405Z,65.50
2023-03-18T17:13:47.340Z,63.80
2023-03-18T17:16:20.200Z,21.60
2023-03-18T17:18:48.241Z,20.40
2023-03-18T17:21:17.090Z,15.80
2023-03-18T17:23:45.776Z,16.80
2023-03-18T17:26:17.093Z,32.50
2023-03-18T17:28:49.333Z,42.00
2023-03-18T17:31:17.502Z,35.40
2023-03-18T17:33:45.458Z,34.20
2023-03-18T17:36:13.289Z,31.60
2023-03-18T17:38:41.188Z,33.00
2023-03-18T17:41:19.357Z,47.70
2023-03-18T17:43:47.408Z,44.40
2023-03-18T17:46:15.257Z,71.10
2023-03-18T17:48:43.850Z,104.20
2023-03-18T17:51:17.409Z,65.90
2023-03-18T17:53:53.227Z,59.70
2023-03-18T17:56:21.057Z,70.20
2023-03-18T17:58:51.561Z,99.40
2023-03-18T18:01:29.296Z,83.90
2023-03-18T18:03:58.861Z,81.50
2023-03-18T18:06:32.140Z,109.30
2023-03-18T18:09:01.178Z,60.70
2023-03-18T18:11:32.281Z,55.00
2023-03-18T18:14:11.197Z,35.60
2023-03-18T18:16:38.998Z,27.40
2023-03-18T18:19:07.803Z,30.40
2023-03-18T18:21:35.632Z,30.10
2023-03-18T18:24:04.491Z,27.80
2023-03-18T18:26:32.420Z,29.30
2023-03-18T18:29:00.415Z,38.00
2023-03-18T18:31:28.907Z,40.60
2023-03-18T18:33:56.829Z,48.20
2023-03-18T18:36:28.196Z,74.10
2023-03-18T18:38:56.747Z,81.50
2023-03-18T18:41:24.572Z,82.80
2023-03-18T18:43:52.774Z,85.30
2023-03-18T18:46:21.967Z,76.20
2023-03-18T18:48:50.181Z,70.00
2023-03-18T18:51:20.229Z,72.80
2023-03-18T18:53:49.660Z,63.50
2023-03-18T18:56:23.597Z,63.40
2023-03-18T18:58:52.888Z,56.40
2023-03-18T19:01:21.165Z,61.80
2023-03-18T19:03:50.009Z,66.60
2023-03-18T19:06:26.146Z,78.70
2023-03-18T19:08:56.664Z,73.10
2023-03-18T19:11:26.268Z,55.50
2023-03-18T19:13:55.340Z,59.90
2023-03-18T19:16:33.503Z,60.10
2023-03-18T19:19:01.819Z,72.00
2023-03-18T19:21:29.620Z,74.00
2023-03-18T19:23:58.376Z,82.60
2023-03-18T19:26:27.236Z,72.90
2023-03-18T19:28:59.486Z,68.50
2023-03-18T19:31:32.235Z,65.40
2023-03-18T19:34:00.507Z,64.30
2023-03-18T19:36:37.680Z,79.20
2023-03-18T19:39:06.180Z,85.70
2023-03-18T19:41:33.966Z,112.00
2023-03-18T19:44:06.294Z,108.20
2023-03-18T19:46:40.837Z,100.60
2023-03-18T19:49:11.810Z,101.40
2023-03-18T19:51:39.665Z,102.60
2023-03-18T19:54:33.831Z,111.90
2023-03-18T19:57:03.972Z,106.20
2023-03-18T19:59:38.738Z,99.10
2023-03-18T20:02:23.629Z,85.40
2023-03-18T20:04:54.426Z,119.30
2023-03-18T20:07:24.800Z,107.00
2023-03-18T20:09:53.945Z,108.60
2023-03-18T20:12:24.222Z,116.00
2023-03-18T20:14:52.540Z,115.70
2023-03-18T20:17:36.106Z,117.40
2023-03-18T20:20:05.319Z,116.70
2023-03-18T20:22:36.615Z,121.80
2023-03-18T20:25:06.073Z,118.90
2023-03-18T20:27:34.380Z,117.80
2023-03-18T20:30:02.349Z,104.60
2023-03-18T20:32:30.231Z,110.80
2023-03-18T20:34:58.141Z,108.20
2023-03-18T20:37:36.179Z,108.50
2023-03-18T20:40:07.286Z,109.70
2023-03-18T20:42:35.155Z,123.70
2023-03-18T20:45:02.963Z,135.30
2023-03-18T20:47:30.786Z,96.50
2023-03-18T20:49:58.645Z,77.30
2023-03-18T20:52:29.784Z,85.10
2023-03-18T20:54:57.966Z,88.70
2023-03-18T20:57:26.332Z,88.70
2023-03-18T20:59:54.197Z,86.00
2023-03-18T21:02:31.431Z,84.80
2023-03-18T21:05:01.714Z,89.40
2023-03-18T21:07:30.172Z,90.00
2023-03-18T21:09:58.012Z,91.80
2023-03-18T21:12:25.960Z,113.10
2023-03-18T21:14:53.730Z,143.10
2023-03-18T21:17:27.377Z,131.90
2023-03-18T21:20:04.996Z,110.20
2023-03-18T21:22:37.053Z,121.70
2023-03-18T21:25:07.702Z,115.20
2023-03-18T21:27:36.887Z,105.90
2023-03-18T21:30:06.178Z,101.40
2023-03-18T21:32:34.463Z,111.80
2023-03-18T21:35:02.438Z,115.70
2023-03-18T21:37:30.604Z,105.30
2023-03-18T21:39:58.460Z,112.70
2023-03-18T21:42:29.399Z,121.70
2023-03-18T21:44:57.467Z,118.60
2023-03-18T21:47:27.046Z,132.40
2023-03-18T21:49:54.882Z,134.00
2023-03-18T21:52:29.382Z,132.10
2023-03-18T21:54:58.385Z,131.40
2023-03-18T21:57:26.702Z,127.50
2023-03-18T21:59:54.557Z,143.40
2023-03-18T22:02:37.631Z,126.30
2023-03-18T22:05:18.211Z,108.30
2023-03-18T22:07:46.872Z,111.50
2023-03-18T22:10:16.862Z,121.30
2023-03-18T22:12:45.337Z,125.40
2023-03-18T22:15:34.059Z,155.80
2023-03-18T22:18:02.834Z,130.80
2023-03-18T22:20:30.685Z,161.40
2023-03-18T22:22:58.459Z,151.10
2023-03-18T22:25:39.126Z,144.20
2023-03-18T22:28:06.940Z,149.80
2023-03-18T22:30:35.525Z,159.50
2023-03-18T22:33:04.581Z,149.30
2023-03-18T22:35:33.003Z,144.90
2023-03-18T22:38:01.088Z,140.80
2023-03-18T22:40:31.609Z,133.70
2023-03-18T22:43:01.653Z,131.80
2023-03-18T22:45:32.218Z,127.50
2023-03-18T22:48:03.033Z,128.60
2023-03-18T22:50:33.947Z,126.20
2023-03-18T22:53:05.995Z,124.00
2023-03-18T22:55:39.873Z,117.80
2023-03-18T22:58:18.995Z,116.00
2023-03-18T23:00:47.914Z,115.60
2023-03-18T23:03:18.741Z,105.10
2023-03-18T23:05:48.566Z,108.80
2023-03-18T23:08:16.534Z,113.80
2023-03-18T23:10:45.004Z,115.60
2023-03-18T23:13:34.500Z,119.10
2023-03-18T23:16:05.284Z,120.50
2023-03-18T23:18:33.527Z,125.60
2023-03-18T23:21:01.834Z,121.90
2023-03-18T23:23:30.488Z,125.40
2023-03-18T23:25:58.423Z,122.00
2023-03-18T23:28:26.556Z,118.90
2023-03-18T23:30:54.524Z,121.60
2023-03-18T23:33:22.291Z,113.40
2023-03-18T23:35:50.312Z,105.90
2023-03-18T23:38:18.172Z,124.40
2023-03-18T23:40:46.034Z,125.80
2023-03-18T23:43:14.010Z,130.20
2023-03-18T23:45:42.033Z,133.50
2023-03-18T23:48:09.991Z,124.40
2023-03-18T23:50:37.850Z,131.50
2023-03-18T23:53:05.758Z,136.20
2023-03-18T23:55:35.228Z,137.20
2023-03-18T23:58:04.090Z,124.70
